Latest Weather Observations for Goulburn Airport

IDN60901

Issued at 11:51 am EDT Thursday 21 November 2019 (issued every 10 minutes, with the page automatically refreshed every 10 minutes)

About weather observations | Map of Canberra area stations | Latest observations for Canberra area | Other Formats
Station Details ID: 070330 Name: GOULBURN AIRPORT AWS Lat: -34.81 Lon: 149.73 Height: 640.0 m
Data from the previous 72 hours. | See also: Recent months at Goulburn Airport
Date/Time
EDT
Temp
°C
App
Temp
°C
Dew
Point
°C
Rel
Hum
%
Delta-T
°C
Wind Press
QNH
hPa
Press
MSL
hPa
Rain since
9am
mm
Dir  Spd
km/h
Gust
km/h
Spd
kts
Gust
kts
21/11:30am 35.7 29.8 -2.0 9 18.6 NNE 19 33 10 18 1014.5 1012.9 0.0
21/11:00am 34.3 29.8 -3.1 9 18.0 NNE 11 20 6 11 1015.1 1013.4 0.0
21/10:30am 32.2 27.5 -2.0 11 16.5 NE 13 22 7 12 1015.4 1013.7 0.0
21/10:00am 29.1 27.0 5.9 23 12.5 NNE 6 13 3 7 1015.8 1014.2 0.0
21/09:30am 26.1 25.3 6.7 29 10.5 CALM 0 0 0 0 1016.2 1014.6 0.0
21/09:00am 22.1 21.6 9.3 44 7.1 SE 2 7 1 4 1016.6 1014.9 0.0
21/08:30am 18.5 17.9 9.0 54 5.1 SE 2 6 1 3 1017.0 1015.3 0.0
21/08:00am 16.6 16.3 10.2 66 3.5 SE 2 7 1 4 1016.9 1015.2 0.0
21/07:30am 14.2 14.3 10.0 76 2.3 CALM 0 6 0 3 1017.0 1015.3 0.0
21/07:00am 11.6 11.5 9.5 87 1.1 CALM 0 0 0 0 1016.8 1015.1 0.0
21/06:30am 9.0 8.7 8.6 97 0.2 CALM 0 0 0 0 1016.8 1015.1 0.0
21/06:00am 7.4 6.6 6.7 95 0.3 CALM 0 0 0 0 1016.8 1015.1 0.0
21/05:30am 7.4 6.7 6.8 96 0.3 CALM 0 0 0 0 1016.7 1015.0 0.0
21/05:00am 7.9 7.2 7.1 95 0.4 CALM 0 0 0 0 1016.6 1014.9 0.0
21/04:30am 7.8 7.1 6.9 94 0.4 CALM 0 0 0 0 1016.6 1014.9 0.0
21/04:00am 8.8 7.2 8.0 95 0.4 SE 6 7 3 4 1016.7 1015.0 0.0
21/03:30am 8.4 6.4 6.9 90 0.7 SE 7 11 4 6 1017.0 1015.3 0.0
21/03:00am 9.5 8.0 8.4 93 0.6 SSW 6 7 3 4 1016.9 1015.2 0.0
21/02:30am 9.3 8.7 7.6 89 0.8 CALM 0 0 0 0 1017.0 1015.3 0.0
21/02:00am 10.0 8.7 7.8 86 1.1 NE 4 11 2 6 1017.4 1015.8 0.0
21/01:30am 11.0 10.7 8.8 86 1.1 CALM 0 0 0 0 1017.8 1016.2 0.0
21/01:00am 12.2 11.9 8.7 79 1.8 CALM 0 0 0 0 1018.0 1016.4 0.0
21/12:30am 13.6 13.6 9.8 78 2.0 CALM 0 6 0 3 1018.1 1016.5 0.0
21/12:00am 14.4 14.1 10.2 76 2.3 NE 2 7 1 4 1018.6 1017.0 0.0
 
Date/Time
EDT
Temp
°C
App
Temp
°C
Dew
Point
°C
Rel
Hum
%
Delta-T
°C
Wind Press
QNH
hPa
Press
MSL
hPa
Rain since
9am
mm
Dir  Spd
km/h
Gust
km/h
Spd
kts
Gust
kts
20/11:30pm 14.5 13.5 10.3 76 2.3 NE 6 9 3 5 1018.7 1017.1 0.0
20/11:00pm 15.6 13.5 11.0 74 2.5 ENE 13 17 7 9 1018.7 1017.1 0.0
20/10:30pm 15.9 14.4 10.7 71 2.9 E 9 13 5 7 1018.7 1017.1 0.0
20/10:00pm 16.9 14.1 11.4 70 3.1 E 17 20 9 11 1018.4 1016.7 0.0
20/09:30pm 17.4 15.0 11.4 68 3.4 ENE 15 24 8 13 1018.3 1016.6 0.0
20/09:00pm 18.3 17.1 11.6 65 3.8 NE 9 15 5 8 1017.8 1016.2 0.0
20/08:30pm 18.7 18.7 11.0 61 4.3 ESE 2 9 1 5 1017.4 1015.8 0.0
20/08:00pm 20.8 18.4 11.4 55 5.4 E 15 20 8 11 1017.1 1015.5 0.0
20/07:30pm 22.5 19.2 10.9 48 6.6 E 19 26 10 14 1016.8 1015.1 0.0
20/07:00pm 24.2 19.9 9.4 39 8.3 ENE 22 30 12 16 1016.2 1014.6 0.0
20/06:30pm 26.1 21.6 8.6 33 9.8 ENE 22 30 12 16 1015.6 1013.9 0.0
20/06:00pm 27.6 23.3 6.9 27 11.3 NE 19 24 10 13 1015.3 1013.6 0.0
20/05:30pm 27.9 24.0 5.5 24 12.0 ENE 15 22 8 12 1015.1 1013.4 0.0
20/05:00pm 29.1 25.7 5.9 23 12.6 E 13 22 7 12 1015.1 1013.4 0.0
20/04:30pm 28.8 25.2 2.9 19 13.3 E 11 17 6 9 1015.0 1013.3 0.0
20/04:00pm 28.8 25.7 3.6 20 13.1 E 9 17 5 9 1015.3 1013.6 0.0
20/03:30pm 28.2 24.1 2.4 19 13.1 ENE 13 20 7 11 1015.3 1013.6 0.0
20/03:00pm 27.8 24.6 2.8 20 12.7 SE 9 19 5 10 1015.6 1013.9 0.0
20/02:30pm 26.9 23.2 2.1 20 12.4 NNE 11 20 6 11 1015.9 1014.3 0.0
20/02:00pm 26.7 24.2 3.9 23 11.8 ENE 6 11 3 6 1016.1 1014.5 0.0
20/01:30pm 25.5 22.7 5.1 27 10.7 ESE 9 19 5 10 1016.6 1014.9 0.0
20/01:00pm 24.7 21.3 6.0 30 9.9 ENE 13 22 7 12 1016.9 1015.2 0.0
20/12:30pm 23.5 20.1 5.9 32 9.2 NNE 13 22 7 12 1017.1 1015.5 0.0
20/12:00pm 22.6 19.3 6.4 35 8.5 NE 13 26 7 14 1017.2 1015.6 0.0
20/11:30am 21.1 17.2 7.3 41 7.3 NE 17 24 9 13 1017.6 1016.0 0.0
20/11:00am 19.9 16.5 7.6 45 6.5 NE 15 24 8 13 1017.8 1016.2 0.0
20/10:30am 19.2 16.0 8.5 50 5.7 ENE 15 24 8 13 1018.1 1016.5 0.0
20/10:00am 17.8 14.2 8.4 54 5.0 ENE 17 30 9 16 1018.1 1016.5 0.0
20/09:30am 16.6 12.4 8.1 57 4.5 NE 20 32 11 17 1018.4 1016.7 0.0
20/09:00am 16.5 12.7 9.2 62 3.9 ENE 19 28 10 15 1018.7 1017.1 0.0
20/08:30am 14.3 10.0 8.0 66 3.2 ENE 20 30 11 16 1018.7 1017.1 0.0
20/08:21am 14.6 10.7 8.8 68 3.0 ENE 19 26 10 14 1018.7 1017.1 0.0
20/08:00am 13.7 10.1 8.3 70 2.8 ENE 17 24 9 13 1018.6 1017.0 0.0
20/07:30am 12.9 9.3 8.2 73 2.4 E 17 20 9 11 1018.5 1016.9 0.0
20/07:00am 12.1 9.6 8.2 77 2.0 E 11 17 6 9 1018.3 1016.6 0.0
20/06:30am 11.5 9.3 8.0 79 1.8 ENE 9 15 5 8 1018.0 1016.4 0.0
20/06:00am 10.7 8.1 7.6 81 1.5 ESE 11 13 6 7 1017.6 1016.0 0.0
20/05:30am 11.0 8.3 7.5 79 1.7 ESE 11 15 6 8 1017.2 1015.6 0.0
20/05:00am 11.4 7.7 7.9 79 1.8 ESE 17 22 9 12 1016.9 1015.2 0.0
20/04:30am 11.3 7.6 8.0 80 1.7 ESE 17 20 9 11 1016.6 1014.9 0.0
20/04:00am 11.3 7.7 8.2 81 1.6 SE 17 22 9 12 1016.7 1015.0 0.0
20/03:30am 11.4 8.2 8.3 81 1.6 ESE 15 20 8 11 1016.7 1015.0 0.0
20/03:00am 11.2 8.4 8.4 83 1.4 ESE 13 17 7 9 1016.7 1015.0 0.0
20/02:30am 10.9 8.2 9.0 88 1.0 ESE 13 15 7 8 1017.0 1015.3 0.0
20/02:09am 10.1 7.9 9.2 94 0.5 E 11 17 6 9 1017.0 1015.3 0.0
20/02:00am 9.4 6.9 8.3 93 0.6 ESE 11 13 6 7 1017.1 1015.5 0.0
20/01:30am 9.4 6.8 7.7 89 0.8 ESE 11 13 6 7 1017.2 1015.6 0.0
20/01:00am 9.3 6.8 6.6 83 1.3 ESE 9 13 5 7 1017.3 1015.7 0.0
20/12:30am 10.1 7.5 6.3 77 1.8 E 9 15 5 8 1017.5 1015.9 0.0
20/12:00am 10.8 7.9 6.4 74 2.1 ESE 11 15 6 8 1017.5 1015.9 0.0
 
Date/Time
EDT
Temp
°C
App
Temp
°C
Dew
Point
°C
Rel
Hum
%
Delta-T
°C
Wind Press
QNH
hPa
Press
MSL
hPa
Rain since
9am
mm
Dir  Spd
km/h
Gust
km/h
Spd
kts
Gust
kts
19/11:30pm 11.1 8.4 5.4 68 2.7 ESE 9 13 5 7 1017.3 1015.7 0.0
19/11:00pm 12.7 9.2 7.2 69 2.8 ESE 15 19 8 10 1017.4 1015.8 0.0
19/10:35pm 14.1 10.0 8.5 69 2.9 ESE 20 26 11 14 1017.3 1015.7 0.0
19/10:30pm 14.2 10.2 9.0 71 2.7 ESE 20 30 11 16 1017.3 1015.7 0.0
19/10:00pm 14.7 11.6 10.3 75 2.4 ESE 17 20 9 11 1017.1 1015.5 0.0
19/09:30pm 15.1 13.0 11.1 77 2.2 ESE 13 19 7 10 1016.7 1015.0 0.0
19/09:07pm 15.0 11.2 11.0 77 2.2 SE 22 28 12 15 1016.3 1014.7 0.0
19/09:00pm 15.1 11.9 11.3 78 2.1 SE 19 28 10 15 1016.2 1014.6 0.0
19/08:30pm 15.3 11.9 10.5 73 2.6 SE 19 26 10 14 1015.6 1013.9 0.0
19/08:00pm 16.9 13.1 11.0 68 3.3 ESE 22 35 12 19 1014.6 1013.0 0.0
19/07:30pm 18.7 12.8 11.3 62 4.2 ESE 33 44 18 24 1013.5 1011.8 0.0
19/07:00pm 22.3 15.6 9.8 45 7.0 S 35 63 19 34 1011.6 1009.8 0.0
19/06:57pm 23.9 18.1 7.9 36 8.7 SW 28 63 15 34 1011.4 1009.7 0.0
19/06:55pm 26.3 20.8 7.4 30 10.3 WSW 26 52 14 28 1011.7 1010.0 0.0
19/06:30pm 30.2 21.8 -6.1 9 16.1 W 30 39 16 21 1010.7 1009.0 0.0
19/06:00pm 30.9 22.0 -7.1 8 16.7 W 32 44 17 24 1010.4 1008.7 0.0
19/05:44pm 31.1 22.0 -7.0 8 16.8 W 33 54 18 29 1010.3 1008.6 0.0
19/05:30pm 31.7 22.3 -6.6 8 17.1 W 35 48 19 26 1010.2 1008.4 0.0
19/05:17pm 32.0 23.6 -6.3 8 17.2 W 30 48 16 26 1010.2 1008.4 0.0
19/05:00pm 32.1 23.3 -6.3 8 17.3 W 32 48 17 26 1010.2 1008.4 0.0
19/04:48pm 31.8 22.4 -6.5 8 17.1 W 35 56 19 30 1010.2 1008.4 0.0
19/04:30pm 32.4 23.4 -6.0 8 17.4 W 33 46 18 25 1010.3 1008.6 0.0
19/04:00pm 31.7 23.8 -5.0 9 16.8 W 28 48 15 26 1010.3 1008.6 0.0
19/03:58pm 31.5 23.2 -5.2 9 16.7 W 30 48 16 26 1010.5 1008.8 0.0
19/03:34pm 31.8 22.2 -4.9 9 16.8 W 37 50 20 27 1010.6 1008.9 0.0
19/03:30pm 31.9 22.7 -4.9 9 16.9 W 35 50 19 27 1010.8 1009.1 0.0
19/03:02pm 31.3 22.4 -5.3 9 16.6 W 33 52 18 28 1011.0 1009.3 0.0
19/03:00pm 31.4 22.7 -3.8 10 16.4 W 33 48 18 26 1011.0 1009.3 0.0
19/02:30pm 31.1 20.7 -5.5 9 16.5 W 41 59 22 32 1011.6 1009.8 0.0
19/02:18pm 30.5 21.5 -5.9 9 16.3 W 33 59 18 32 1011.8 1010.1 0.0
19/02:17pm 30.9 22.0 -5.6 9 16.4 W 33 57 18 31 1011.8 1010.1 0.0
19/02:13pm 31.1 21.7 -2.8 11 16.0 W 37 67 20 36 1011.8 1010.1 0.0
19/02:06pm 31.4 21.5 -3.8 10 16.4 WNW 39 67 21 36 1011.8 1010.1 0.0
19/02:00pm 30.5 20.5 -4.5 10 16.0 WNW 39 56 21 30 1012.0 1010.3 0.0
19/01:30pm 30.5 19.8 -4.5 10 16.0 WNW 43 63 23 34 1012.3 1010.6 0.0
19/01:04pm 29.7 18.9 -3.9 11 15.4 WNW 44 65 24 35 1012.3 1010.6 0.0
19/01:00pm 29.9 20.0 -3.7 11 15.5 WNW 39 65 21 35 1012.3 1010.6 0.0
19/12:31pm 29.4 18.3 -2.9 12 15.1 WNW 46 69 25 37 1012.8 1011.1 0.0
19/12:30pm 29.1 18.1 -2.1 13 14.7 WNW 46 59 25 32 1012.9 1011.2 0.0
19/12:00pm 29.6 19.1 -2.8 12 15.2 WNW 43 65 23 35 1013.3 1011.6 0.0
19/11:30am 28.7 18.6 -2.4 13 14.6 WNW 41 69 22 37 1013.4 1011.7 0.0
19/11:02am 27.7 16.9 -3.2 13 14.1 WNW 44 67 24 36 1013.5 1011.8 0.0
19/11:00am 27.6 16.8 -3.3 13 14.1 WNW 44 57 24 31 1013.7 1012.0 0.0
19/10:49am 27.5 18.2 -2.3 14 13.8 WNW 37 59 20 32 1013.7 1012.0 0.0
19/10:30am 26.7 17.4 -2.1 15 13.3 W 37 52 20 28 1014.0 1012.3 0.0
19/10:00am 26.4 16.7 -2.3 15 13.2 WNW 39 56 21 30 1014.2 1012.5 0.0
19/09:53am 25.8 16.5 -1.9 16 12.8 WNW 37 56 20 30 1014.2 1012.5 0.0
19/09:30am 25.6 17.4 -1.2 17 12.5 WNW 32 43 17 23 1014.3 1012.7 0.0
19/09:00am 24.7 18.0 -1.2 18 12.0 WNW 24 39 13 21 1014.5 1012.9 0.0
19/08:30am 22.5 17.0 0.9 24 10.3 NW 19 28 10 15 1014.9 1013.2 0.0
19/08:00am 20.0 17.0 1.9 30 8.6 N 7 11 4 6 1015.0 1013.3 0.0
19/07:30am 17.9 15.0 1.4 33 7.6 N 6 11 3 6 1015.0 1013.3 0.0
19/07:00am 16.2 14.1 3.9 44 5.9 N 4 9 2 5 1014.9 1013.2 0.0
19/06:30am 12.8 9.6 2.9 51 4.5 NNW 9 15 5 8 1014.9 1013.2 0.0
19/06:00am 8.7 6.8 0.7 57 3.4 CALM 0 6 0 3 1014.6 1013.0 0.0
19/05:30am 10.1 6.7 -0.7 47 4.4 WNW 7 15 4 8 1014.3 1012.7 0.0
19/05:00am 12.8 9.3 1.2 45 5.1 NNW 9 11 5 6 1014.2 1012.5 0.0
19/04:30am 11.4 9.5 0.8 48 4.6 CALM 0 0 0 0 1014.0 1012.3 0.0
19/04:00am 12.8 8.5 0.9 44 5.2 NW 13 17 7 9 1014.1 1012.4 0.0
19/03:30am 14.4 9.7 1.0 40 6.0 NNW 15 20 8 11 1014.2 1012.5 0.0
19/03:00am 14.3 9.6 1.2 41 5.9 NNW 15 20 8 11 1014.2 1012.5 0.0
19/02:30am 12.2 8.6 0.6 45 5.0 N 9 13 5 7 1014.4 1012.8 0.0
19/02:00am 14.2 9.4 0.5 39 6.0 NNW 15 19 8 10 1014.5 1012.9 0.0
19/01:30am 16.8 12.9 0.9 34 7.2 WNW 11 20 6 11 1014.6 1013.0 0.0
19/01:00am 15.5 11.8 0.1 35 6.8 NW 9 15 5 8 1015.1 1013.4 0.0
19/12:30am 15.5 10.4 0.9 37 6.6 NW 17 20 9 11 1015.4 1013.7 0.0
19/12:00am 12.7 7.9 0.1 42 5.4 WNW 15 17 8 9 1015.7 1014.1 0.0
 
Date/Time
EDT
Temp
°C
App
Temp
°C
Dew
Point
°C
Rel
Hum
%
Delta-T
°C
Wind Press
QNH
hPa
Press
MSL
hPa
Rain since
9am
mm
Dir  Spd
km/h
Gust
km/h
Spd
kts
Gust
kts
18/11:30pm 13.5 8.6 -0.2 39 5.9 NW 15 17 8 9 1015.8 1014.2 0.0
18/11:00pm 15.8 10.6 0.0 34 7.0 WNW 17 19 9 10 1015.9 1014.3 0.0
18/10:30pm 16.0 10.8 0.2 34 7.0 WNW 17 20 9 11 1016.0 1014.4 0.0
18/10:00pm 16.2 11.7 -0.1 33 7.2 WNW 13 17 7 9 1016.0 1014.4 0.0
18/09:30pm 17.2 11.9 -0.5 30 7.8 WNW 17 20 9 11 1015.7 1014.1 0.0
18/09:00pm 18.8 12.6 -0.1 28 8.5 W 22 26 12 14 1015.3 1013.6 0.0
18/08:30pm 19.2 12.6 -0.2 27 8.8 W 24 28 13 15 1015.1 1013.4 0.0
18/08:00pm 20.7 13.3 -0.6 24 9.7 W 28 37 15 20 1014.7 1013.1 0.0
18/07:30pm 21.5 15.8 -1.1 22 10.2 WNW 19 28 10 15 1014.6 1013.0 0.0
18/07:00pm 23.0 14.7 -1.8 19 11.2 WNW 32 43 17 23 1014.3 1012.7 0.0
18/06:30pm 23.8 15.4 -2.7 17 11.9 W 32 41 17 22 1013.9 1012.2 0.0
18/06:14pm 24.6 16.1 -2.9 16 12.4 WNW 32 50 17 27 1014.0 1012.3 0.0
18/06:00pm 24.3 15.3 -3.1 16 12.2 W 35 52 19 28 1013.7 1012.0 0.0
18/05:30pm 24.8 15.7 -3.6 15 12.6 W 35 44 19 24 1013.9 1012.2 0.0
18/05:00pm 25.1 16.4 -3.3 15 12.7 WNW 33 48 18 26 1014.1 1012.4 0.0
18/04:31pm 24.8 16.2 -2.7 16 12.4 WNW 33 52 18 28 1014.4 1012.8 0.0
18/04:30pm 24.8 15.8 -2.7 16 12.4 WNW 35 52 19 28 1014.4 1012.8 0.0
18/04:25pm 24.8 16.1 -3.6 15 12.6 WNW 33 52 18 28 1014.6 1013.0 0.0
18/04:00pm 24.9 15.8 -3.5 15 12.6 WNW 35 48 19 26 1014.9 1013.2 0.0
18/03:30pm 24.8 16.0 -1.1 18 12.0 WNW 35 54 19 29 1015.0 1013.3 0.0
18/03:27pm 25.7 16.8 -2.0 16 12.8 W 35 54 19 29 1014.9 1013.2 0.0
18/03:00pm 25.2 15.9 -2.4 16 12.6 WNW 37 48 20 26 1015.3 1013.6 0.0
18/02:33pm 24.7 16.7 -2.0 17 12.2 NW 30 48 16 26 1015.6 1013.9 0.0
18/02:30pm 25.0 16.7 -1.7 17 12.3 WNW 32 48 17 26 1015.7 1014.1 0.0
18/02:00pm 23.8 14.8 -2.7 17 11.9 WNW 35 50 19 27 1016.0 1014.4 0.0
18/01:46pm 24.9 16.1 -1.0 18 12.1 WNW 35 54 19 29 1016.2 1014.6 0.0
18/01:30pm 24.0 14.7 -1.8 18 11.8 WNW 37 50 20 27 1016.3 1014.7 0.0
18/01:00pm 23.8 15.4 -1.2 19 11.5 WNW 33 46 18 25 1017.0 1015.3 0.0
18/12:40pm 23.0 15.1 -1.8 19 11.2 NW 30 46 16 25 1017.4 1015.8 0.0
18/12:30pm 22.4 13.9 -1.6 20 10.9 WNW 33 46 18 25 1017.5 1015.9 0.0
18/12:09pm 22.1 14.0 -0.6 22 10.4 WNW 32 50 17 27 1017.7 1016.1 0.0
18/12:00pm 21.5 12.2 -2.4 20 10.5 WNW 37 50 20 27 1017.7 1016.1 0.0

Latest Capital City Observations: Canberra | Sydney | Melbourne | Brisbane | Adelaide | Perth | Hobart | Darwin

Other formats

Comma delimited format used in spreadsheet applications
http://www.bom.gov.au/fwo/IDN60903/IDN60903.95716.axf

JavaScript Object Notation format (JSON) in row-major order
http://www.bom.gov.au/fwo/IDN60903/IDN60903.95716.json

Data quality

Most of these data are generated automatically and are frequently updated. Quality checks on data are not normally performed. It is possible for incorrect values to appear. Refer to information at About Latest Weather Observations and please check the disclaimer before using these data.